sensor_id;sensor_type;location;lat;lon;timestamp;P1;durP1;ratioP1;P2;durP2;ratioP2
18947;SDS011;9607;51.600;7.558;2023-11-21T00:01:06;9.57;;;6.78;;
18947;SDS011;9607;51.600;7.558;2023-11-21T00:03:33;9.73;;;7.00;;
18947;SDS011;9607;51.600;7.558;2023-11-21T00:06:01;11.02;;;7.55;;
18947;SDS011;9607;51.600;7.558;2023-11-21T00:08:28;10.95;;;7.65;;
18947;SDS011;9607;51.600;7.558;2023-11-21T00:10:55;10.45;;;7.78;;
18947;SDS011;9607;51.600;7.558;2023-11-21T00:13:21;9.70;;;7.57;;
18947;SDS011;9607;51.600;7.558;2023-11-21T00:15:49;12.73;;;7.80;;
18947;SDS011;9607;51.600;7.558;2023-11-21T00:18:17;10.85;;;7.05;;
18947;SDS011;9607;51.600;7.558;2023-11-21T00:20:44;10.00;;;7.55;;
18947;SDS011;9607;51.600;7.558;2023-11-21T00:23:11;12.10;;;9.05;;
18947;SDS011;9607;51.600;7.558;2023-11-21T00:25:37;10.82;;;7.82;;
18947;SDS011;9607;51.600;7.558;2023-11-21T00:28:05;10.80;;;7.60;;
18947;SDS011;9607;51.600;7.558;2023-11-21T00:30:32;10.35;;;7.30;;
18947;SDS011;9607;51.600;7.558;2023-11-21T00:32:58;12.00;;;7.20;;
18947;SDS011;9607;51.600;7.558;2023-11-21T00:35:28;9.27;;;6.85;;
18947;SDS011;9607;51.600;7.558;2023-11-21T00:37:54;10.52;;;6.93;;
18947;SDS011;9607;51.600;7.558;2023-11-21T00:40:22;9.88;;;5.93;;
18947;SDS011;9607;51.600;7.558;2023-11-21T00:42:49;8.18;;;7.13;;
18947;SDS011;9607;51.600;7.558;2023-11-21T00:45:16;7.82;;;6.32;;
18947;SDS011;9607;51.600;7.558;2023-11-21T00:47:43;8.73;;;6.20;;
18947;SDS011;9607;51.600;7.558;2023-11-21T00:50:10;7.55;;;5.95;;
18947;SDS011;9607;51.600;7.558;2023-11-21T00:52:38;9.38;;;5.88;;
18947;SDS011;9607;51.600;7.558;2023-11-21T00:55:05;8.70;;;6.03;;
18947;SDS011;9607;51.600;7.558;2023-11-21T00:57:35;8.10;;;5.57;;
18947;SDS011;9607;51.600;7.558;2023-11-21T01:00:03;7.97;;;5.88;;
18947;SDS011;9607;51.600;7.558;2023-11-21T01:02:33;7.90;;;5.85;;
18947;SDS011;9607;51.600;7.558;2023-11-21T01:05:00;7.97;;;5.80;;
18947;SDS011;9607;51.600;7.558;2023-11-21T01:07:28;6.82;;;6.13;;
18947;SDS011;9607;51.600;7.558;2023-11-21T01:09:56;7.65;;;5.85;;
18947;SDS011;9607;51.600;7.558;2023-11-21T01:12:24;8.43;;;5.80;;
18947;SDS011;9607;51.600;7.558;2023-11-21T01:14:53;8.00;;;6.60;;
18947;SDS011;9607;51.600;7.558;2023-11-21T01:17:20;9.00;;;6.57;;
18947;SDS011;9607;51.600;7.558;2023-11-21T01:19:47;8.32;;;5.53;;
18947;SDS011;9607;51.600;7.558;2023-11-21T01:22:14;8.45;;;5.43;;
18947;SDS011;9607;51.600;7.558;2023-11-21T01:24:41;7.03;;;5.20;;
18947;SDS011;9607;51.600;7.558;2023-11-21T01:27:09;7.13;;;5.70;;
18947;SDS011;9607;51.600;7.558;2023-11-21T01:29:36;7.72;;;5.55;;
18947;SDS011;9607;51.600;7.558;2023-11-21T01:32:04;6.80;;;5.50;;
18947;SDS011;9607;51.600;7.558;2023-11-21T01:34:33;6.20;;;5.47;;
18947;SDS011;9607;51.600;7.558;2023-11-21T01:37:00;6.78;;;5.20;;
18947;SDS011;9607;51.600;7.558;2023-11-21T01:39:27;6.82;;;4.82;;
18947;SDS011;9607;51.600;7.558;2023-11-21T01:41:54;6.63;;;5.10;;
18947;SDS011;9607;51.600;7.558;2023-11-21T01:44:24;7.30;;;4.75;;
18947;SDS011;9607;51.600;7.558;2023-11-21T01:46:51;7.20;;;5.43;;
18947;SDS011;9607;51.600;7.558;2023-11-21T01:49:18;8.18;;;5.25;;
18947;SDS011;9607;51.600;7.558;2023-11-21T01:51:46;7.00;;;5.18;;
18947;SDS011;9607;51.600;7.558;2023-11-21T01:54:15;7.40;;;5.60;;
18947;SDS011;9607;51.600;7.558;2023-11-21T01:56:43;7.90;;;5.55;;
18947;SDS011;9607;51.600;7.558;2023-11-21T01:59:12;7.13;;;5.22;;
18947;SDS011;9607;51.600;7.558;2023-11-21T02:01:43;7.05;;;5.20;;
18947;SDS011;9607;51.600;7.558;2023-11-21T02:04:11;6.45;;;4.88;;
18947;SDS011;9607;51.600;7.558;2023-11-21T02:06:38;9.70;;;6.05;;
18947;SDS011;9607;51.600;7.558;2023-11-21T02:09:05;7.03;;;5.40;;
18947;SDS011;9607;51.600;7.558;2023-11-21T02:11:32;6.70;;;5.25;;
18947;SDS011;9607;51.600;7.558;2023-11-21T02:14:00;6.30;;;4.78;;
18947;SDS011;9607;51.600;7.558;2023-11-21T02:16:32;8.05;;;5.72;;
18947;SDS011;9607;51.600;7.558;2023-11-21T02:19:01;7.20;;;6.10;;
18947;SDS011;9607;51.600;7.558;2023-11-21T02:21:30;7.93;;;5.72;;
18947;SDS011;9607;51.600;7.558;2023-11-21T02:23:59;7.80;;;6.00;;
18947;SDS011;9607;51.600;7.558;2023-11-21T02:26:25;8.57;;;5.80;;
18947;SDS011;9607;51.600;7.558;2023-11-21T02:28:53;11.05;;;7.80;;
18947;SDS011;9607;51.600;7.558;2023-11-21T02:31:20;9.38;;;6.70;;
18947;SDS011;9607;51.600;7.558;2023-11-21T02:33:48;9.50;;;6.25;;
18947;SDS011;9607;51.600;7.558;2023-11-21T02:36:14;7.63;;;6.40;;
18947;SDS011;9607;51.600;7.558;2023-11-21T02:38:41;11.18;;;7.75;;
18947;SDS011;9607;51.600;7.558;2023-11-21T02:41:09;10.43;;;7.82;;
18947;SDS011;9607;51.600;7.558;2023-11-21T02:43:36;13.80;;;8.23;;
18947;SDS011;9607;51.600;7.558;2023-11-21T02:46:03;11.10;;;7.25;;
18947;SDS011;9607;51.600;7.558;2023-11-21T02:48:31;11.65;;;7.45;;
18947;SDS011;9607;51.600;7.558;2023-11-21T02:50:58;10.35;;;6.72;;
18947;SDS011;9607;51.600;7.558;2023-11-21T02:53:25;9.30;;;6.55;;
18947;SDS011;9607;51.600;7.558;2023-11-21T02:55:51;8.77;;;6.57;;
18947;SDS011;9607;51.600;7.558;2023-11-21T02:58:20;8.55;;;6.50;;
18947;SDS011;9607;51.600;7.558;2023-11-21T03:00:46;13.02;;;8.45;;
18947;SDS011;9607;51.600;7.558;2023-11-21T03:03:13;12.18;;;7.20;;
18947;SDS011;9607;51.600;7.558;2023-11-21T03:05:40;12.00;;;8.52;;
18947;SDS011;9607;51.600;7.558;2023-11-21T03:08:10;13.57;;;8.57;;
18947;SDS011;9607;51.600;7.558;2023-11-21T03:10:37;15.10;;;8.50;;
18947;SDS011;9607;51.600;7.558;2023-11-21T03:13:04;10.43;;;7.65;;
18947;SDS011;9607;51.600;7.558;2023-11-21T03:15:33;12.38;;;7.30;;
18947;SDS011;9607;51.600;7.558;2023-11-21T03:18:00;11.38;;;7.10;;
18947;SDS011;9607;51.600;7.558;2023-11-21T03:20:28;10.65;;;7.10;;
18947;SDS011;9607;51.600;7.558;2023-11-21T03:22:55;13.38;;;7.80;;
18947;SDS011;9607;51.600;7.558;2023-11-21T03:25:21;11.13;;;6.82;;
18947;SDS011;9607;51.600;7.558;2023-11-21T03:27:49;8.60;;;6.75;;
18947;SDS011;9607;51.600;7.558;2023-11-21T03:30:15;7.53;;;5.88;;
18947;SDS011;9607;51.600;7.558;2023-11-21T03:32:44;12.77;;;8.32;;
18947;SDS011;9607;51.600;7.558;2023-11-21T03:35:10;10.10;;;6.90;;
18947;SDS011;9607;51.600;7.558;2023-11-21T03:37:38;10.80;;;7.45;;
18947;SDS011;9607;51.600;7.558;2023-11-21T03:40:06;10.38;;;7.35;;
18947;SDS011;9607;51.600;7.558;2023-11-21T03:42:34;8.90;;;6.20;;
18947;SDS011;9607;51.600;7.558;2023-11-21T03:45:02;10.07;;;6.47;;
18947;SDS011;9607;51.600;7.558;2023-11-21T03:47:29;9.05;;;6.28;;
18947;SDS011;9607;51.600;7.558;2023-11-21T03:49:57;7.68;;;5.90;;
18947;SDS011;9607;51.600;7.558;2023-11-21T03:52:24;8.80;;;6.32;;
18947;SDS011;9607;51.600;7.558;2023-11-21T03:54:52;7.57;;;5.50;;
18947;SDS011;9607;51.600;7.558;2023-11-21T03:57:20;8.55;;;6.18;;
18947;SDS011;9607;51.600;7.558;2023-11-21T03:59:46;8.40;;;6.15;;
18947;SDS011;9607;51.600;7.558;2023-11-21T04:02:13;8.10;;;5.90;;
18947;SDS011;9607;51.600;7.558;2023-11-21T04:04:40;10.80;;;6.97;;
18947;SDS011;9607;51.600;7.558;2023-11-21T04:07:08;9.45;;;6.55;;
18947;SDS011;9607;51.600;7.558;2023-11-21T04:09:36;7.60;;;5.68;;
18947;SDS011;9607;51.600;7.558;2023-11-21T04:12:03;8.20;;;6.50;;
18947;SDS011;9607;51.600;7.558;2023-11-21T04:14:30;7.90;;;5.47;;
18947;SDS011;9607;51.600;7.558;2023-11-21T04:16:58;9.13;;;6.80;;
18947;SDS011;9607;51.600;7.558;2023-11-21T04:19:24;7.93;;;6.28;;
18947;SDS011;9607;51.600;7.558;2023-11-21T04:21:51;8.85;;;6.47;;
18947;SDS011;9607;51.600;7.558;2023-11-21T04:24:19;10.50;;;7.28;;
18947;SDS011;9607;51.600;7.558;2023-11-21T04:26:46;12.85;;;8.63;;
18947;SDS011;9607;51.600;7.558;2023-11-21T04:29:13;12.32;;;9.10;;
18947;SDS011;9607;51.600;7.558;2023-11-21T04:31:40;11.48;;;8.50;;
18947;SDS011;9607;51.600;7.558;2023-11-21T04:34:07;12.57;;;7.78;;
18947;SDS011;9607;51.600;7.558;2023-11-21T04:36:34;10.60;;;7.70;;
18947;SDS011;9607;51.600;7.558;2023-11-21T04:39:01;9.63;;;7.47;;
18947;SDS011;9607;51.600;7.558;2023-11-21T04:41:30;8.60;;;7.00;;
18947;SDS011;9607;51.600;7.558;2023-11-21T04:43:57;10.20;;;6.85;;
18947;SDS011;9607;51.600;7.558;2023-11-21T04:46:25;8.40;;;6.55;;
18947;SDS011;9607;51.600;7.558;2023-11-21T04:48:52;7.78;;;5.93;;
18947;SDS011;9607;51.600;7.558;2023-11-21T04:51:19;8.80;;;5.93;;
18947;SDS011;9607;51.600;7.558;2023-11-21T04:53:46;7.07;;;5.82;;
18947;SDS011;9607;51.600;7.558;2023-11-21T04:56:12;5.75;;;4.70;;
18947;SDS011;9607;51.600;7.558;2023-11-21T04:58:42;7.47;;;5.03;;
18947;SDS011;9607;51.600;7.558;2023-11-21T05:01:09;5.28;;;4.68;;
18947;SDS011;9607;51.600;7.558;2023-11-21T05:03:37;7.45;;;5.10;;
18947;SDS011;9607;51.600;7.558;2023-11-21T05:06:04;6.25;;;4.68;;
18947;SDS011;9607;51.600;7.558;2023-11-21T05:08:31;9.73;;;6.35;;
18947;SDS011;9607;51.600;7.558;2023-11-21T05:10:58;7.13;;;5.32;;
18947;SDS011;9607;51.600;7.558;2023-11-21T05:13:24;11.52;;;7.05;;
18947;SDS011;9607;51.600;7.558;2023-11-21T05:15:53;9.20;;;6.78;;
18947;SDS011;9607;51.600;7.558;2023-11-21T05:18:21;7.78;;;6.20;;
18947;SDS011;9607;51.600;7.558;2023-11-21T05:20:48;9.02;;;6.47;;
18947;SDS011;9607;51.600;7.558;2023-11-21T05:23:15;8.45;;;5.85;;
18947;SDS011;9607;51.600;7.558;2023-11-21T05:25:42;7.80;;;5.85;;
18947;SDS011;9607;51.600;7.558;2023-11-21T05:28:09;10.23;;;6.13;;
18947;SDS011;9607;51.600;7.558;2023-11-21T05:30:36;7.70;;;5.97;;
18947;SDS011;9607;51.600;7.558;2023-11-21T05:33:05;8.52;;;6.78;;
18947;SDS011;9607;51.600;7.558;2023-11-21T05:35:32;8.88;;;6.40;;
18947;SDS011;9607;51.600;7.558;2023-11-21T05:37:59;10.02;;;7.28;;
18947;SDS011;9607;51.600;7.558;2023-11-21T05:40:26;8.40;;;6.75;;
18947;SDS011;9607;51.600;7.558;2023-11-21T05:42:54;9.13;;;6.00;;
18947;SDS011;9607;51.600;7.558;2023-11-21T05:45:22;10.60;;;6.70;;
18947;SDS011;9607;51.600;7.558;2023-11-21T05:47:49;10.02;;;6.80;;
18947;SDS011;9607;51.600;7.558;2023-11-21T05:50:18;10.70;;;6.97;;
18947;SDS011;9607;51.600;7.558;2023-11-21T05:52:45;8.05;;;5.90;;
18947;SDS011;9607;51.600;7.558;2023-11-21T05:55:13;9.60;;;6.18;;
18947;SDS011;9607;51.600;7.558;2023-11-21T05:57:40;9.27;;;6.45;;
18947;SDS011;9607;51.600;7.558;2023-11-21T06:00:10;7.43;;;5.97;;
18947;SDS011;9607;51.600;7.558;2023-11-21T06:02:43;9.30;;;5.72;;
18947;SDS011;9607;51.600;7.558;2023-11-21T06:05:10;10.13;;;6.65;;
18947;SDS011;9607;51.600;7.558;2023-11-21T06:07:38;9.10;;;6.35;;
18947;SDS011;9607;51.600;7.558;2023-11-21T06:10:06;8.50;;;6.65;;
18947;SDS011;9607;51.600;7.558;2023-11-21T06:12:35;9.68;;;7.40;;
18947;SDS011;9607;51.600;7.558;2023-11-21T06:15:02;9.27;;;6.53;;
18947;SDS011;9607;51.600;7.558;2023-11-21T06:17:30;11.13;;;7.57;;
18947;SDS011;9607;51.600;7.558;2023-11-21T06:20:00;10.38;;;6.25;;
18947;SDS011;9607;51.600;7.558;2023-11-21T06:22:29;11.07;;;7.25;;
18947;SDS011;9607;51.600;7.558;2023-11-21T06:24:57;9.40;;;7.25;;
18947;SDS011;9607;51.600;7.558;2023-11-21T06:27:24;9.45;;;7.28;;
18947;SDS011;9607;51.600;7.558;2023-11-21T06:29:50;12.48;;;8.35;;
18947;SDS011;9607;51.600;7.558;2023-11-21T06:32:17;13.63;;;8.93;;
18947;SDS011;9607;51.600;7.558;2023-11-21T06:34:45;14.60;;;9.32;;
18947;SDS011;9607;51.600;7.558;2023-11-21T06:37:12;12.65;;;8.35;;
18947;SDS011;9607;51.600;7.558;2023-11-21T06:39:39;17.05;;;10.45;;
18947;SDS011;9607;51.600;7.558;2023-11-21T06:42:07;21.50;;;11.93;;
18947;SDS011;9607;51.600;7.558;2023-11-21T06:44:35;16.15;;;11.23;;
18947;SDS011;9607;51.600;7.558;2023-11-21T06:47:03;13.55;;;9.40;;
18947;SDS011;9607;51.600;7.558;2023-11-21T06:49:30;14.32;;;10.23;;
18947;SDS011;9607;51.600;7.558;2023-11-21T06:51:57;14.20;;;9.70;;
18947;SDS011;9607;51.600;7.558;2023-11-21T06:54:26;14.52;;;9.57;;
18947;SDS011;9607;51.600;7.558;2023-11-21T06:56:53;14.65;;;10.38;;
18947;SDS011;9607;51.600;7.558;2023-11-21T06:59:23;15.35;;;10.27;;
18947;SDS011;9607;51.600;7.558;2023-11-21T07:01:49;13.55;;;10.13;;
18947;SDS011;9607;51.600;7.558;2023-11-21T07:04:17;12.88;;;9.27;;
18947;SDS011;9607;51.600;7.558;2023-11-21T07:06:44;13.77;;;9.95;;
18947;SDS011;9607;51.600;7.558;2023-11-21T07:09:11;14.65;;;9.63;;
18947;SDS011;9607;51.600;7.558;2023-11-21T07:11:38;13.43;;;9.30;;
18947;SDS011;9607;51.600;7.558;2023-11-21T07:14:05;11.02;;;8.63;;
18947;SDS011;9607;51.600;7.558;2023-11-21T07:16:34;13.27;;;9.45;;
18947;SDS011;9607;51.600;7.558;2023-11-21T07:19:02;17.08;;;9.88;;
18947;SDS011;9607;51.600;7.558;2023-11-21T07:21:31;13.93;;;9.85;;
18947;SDS011;9607;51.600;7.558;2023-11-21T07:23:57;11.75;;;9.48;;
18947;SDS011;9607;51.600;7.558;2023-11-21T07:26:24;12.68;;;9.45;;
18947;SDS011;9607;51.600;7.558;2023-11-21T07:28:54;14.85;;;10.60;;
18947;SDS011;9607;51.600;7.558;2023-11-21T07:31:22;15.45;;;10.02;;
18947;SDS011;9607;51.600;7.558;2023-11-21T07:33:51;14.77;;;9.70;;
18947;SDS011;9607;51.600;7.558;2023-11-21T07:36:18;14.95;;;10.38;;
18947;SDS011;9607;51.600;7.558;2023-11-21T07:38:46;14.73;;;9.98;;
18947;SDS011;9607;51.600;7.558;2023-11-21T07:41:13;12.23;;;9.68;;
18947;SDS011;9607;51.600;7.558;2023-11-21T07:43:40;13.45;;;9.68;;
18947;SDS011;9607;51.600;7.558;2023-11-21T07:46:07;14.85;;;9.27;;
18947;SDS011;9607;51.600;7.558;2023-11-21T07:48:34;13.43;;;9.55;;
18947;SDS011;9607;51.600;7.558;2023-11-21T07:51:02;14.02;;;10.40;;
18947;SDS011;9607;51.600;7.558;2023-11-21T07:53:29;11.93;;;9.18;;
18947;SDS011;9607;51.600;7.558;2023-11-21T07:55:57;14.68;;;9.05;;
18947;SDS011;9607;51.600;7.558;2023-11-21T07:58:24;14.35;;;10.07;;
18947;SDS011;9607;51.600;7.558;2023-11-21T08:00:51;10.77;;;8.68;;
18947;SDS011;9607;51.600;7.558;2023-11-21T08:03:18;13.82;;;9.80;;
18947;SDS011;9607;51.600;7.558;2023-11-21T08:05:44;12.15;;;9.63;;
18947;SDS011;9607;51.600;7.558;2023-11-21T08:08:12;13.73;;;9.20;;
18947;SDS011;9607;51.600;7.558;2023-11-21T08:10:40;15.30;;;13.05;;
18947;SDS011;9607;51.600;7.558;2023-11-21T08:13:07;15.18;;;9.43;;
18947;SDS011;9607;51.600;7.558;2023-11-21T08:15:34;14.98;;;9.13;;
18947;SDS011;9607;51.600;7.558;2023-11-21T08:18:02;13.80;;;9.98;;
18947;SDS011;9607;51.600;7.558;2023-11-21T08:20:32;17.70;;;12.00;;
18947;SDS011;9607;51.600;7.558;2023-11-21T08:23:03;19.17;;;12.60;;
18947;SDS011;9607;51.600;7.558;2023-11-21T08:25:32;22.85;;;13.20;;
18947;SDS011;9607;51.600;7.558;2023-11-21T08:27:59;22.42;;;13.52;;
18947;SDS011;9607;51.600;7.558;2023-11-21T08:30:26;17.92;;;11.68;;
18947;SDS011;9607;51.600;7.558;2023-11-21T08:32:55;17.17;;;10.85;;
18947;SDS011;9607;51.600;7.558;2023-11-21T08:35:23;17.65;;;11.70;;
18947;SDS011;9607;51.600;7.558;2023-11-21T08:37:50;14.77;;;10.27;;
18947;SDS011;9607;51.600;7.558;2023-11-21T08:40:17;24.85;;;14.40;;
18947;SDS011;9607;51.600;7.558;2023-11-21T08:42:47;22.42;;;12.98;;
18947;SDS011;9607;51.600;7.558;2023-11-21T08:45:14;25.30;;;14.95;;
18947;SDS011;9607;51.600;7.558;2023-11-21T08:47:42;23.80;;;14.85;;
18947;SDS011;9607;51.600;7.558;2023-11-21T08:50:10;27.70;;;14.63;;
18947;SDS011;9607;51.600;7.558;2023-11-21T08:52:37;20.23;;;13.40;;
18947;SDS011;9607;51.600;7.558;2023-11-21T08:55:05;17.00;;;11.32;;
18947;SDS011;9607;51.600;7.558;2023-11-21T08:57:33;17.02;;;10.93;;
18947;SDS011;9607;51.600;7.558;2023-11-21T09:00:02;16.05;;;10.40;;
18947;SDS011;9607;51.600;7.558;2023-11-21T09:02:32;12.98;;;9.93;;
18947;SDS011;9607;51.600;7.558;2023-11-21T09:04:59;15.43;;;9.75;;
18947;SDS011;9607;51.600;7.558;2023-11-21T09:07:28;14.35;;;9.82;;
18947;SDS011;9607;51.600;7.558;2023-11-21T09:09:55;13.70;;;9.18;;
18947;SDS011;9607;51.600;7.558;2023-11-21T09:12:22;19.48;;;10.90;;
18947;SDS011;9607;51.600;7.558;2023-11-21T09:14:49;17.45;;;10.70;;
18947;SDS011;9607;51.600;7.558;2023-11-21T09:17:18;24.48;;;14.35;;
18947;SDS011;9607;51.600;7.558;2023-11-21T09:19:45;19.45;;;12.40;;
18947;SDS011;9607;51.600;7.558;2023-11-21T09:22:15;23.80;;;13.85;;
18947;SDS011;9607;51.600;7.558;2023-11-21T09:24:42;37.90;;;20.05;;
18947;SDS011;9607;51.600;7.558;2023-11-21T09:27:09;36.13;;;18.67;;
18947;SDS011;9607;51.600;7.558;2023-11-21T09:29:36;36.05;;;19.30;;
18947;SDS011;9607;51.600;7.558;2023-11-21T09:32:04;46.13;;;21.60;;
18947;SDS011;9607;51.600;7.558;2023-11-21T09:34:33;42.42;;;21.08;;
18947;SDS011;9607;51.600;7.558;2023-11-21T09:37:03;65.45;;;26.48;;
18947;SDS011;9607;51.600;7.558;2023-11-21T09:39:31;79.00;;;27.63;;
18947;SDS011;9607;51.600;7.558;2023-11-21T09:42:02;59.75;;;25.77;;
18947;SDS011;9607;51.600;7.558;2023-11-21T09:44:35;55.90;;;24.25;;
18947;SDS011;9607;51.600;7.558;2023-11-21T09:47:07;63.83;;;25.65;;
18947;SDS011;9607;51.600;7.558;2023-11-21T09:49:42;65.45;;;28.30;;
18947;SDS011;9607;51.600;7.558;2023-11-21T09:52:12;58.95;;;25.58;;
18947;SDS011;9607;51.600;7.558;2023-11-21T09:54:50;62.20;;;26.02;;
18947;SDS011;9607;51.600;7.558;2023-11-21T09:57:18;60.40;;;25.92;;
18947;SDS011;9607;51.600;7.558;2023-11-21T09:59:46;66.28;;;26.27;;
18947;SDS011;9607;51.600;7.558;2023-11-21T10:02:16;54.10;;;25.60;;
18947;SDS011;9607;51.600;7.558;2023-11-21T10:04:47;52.60;;;25.77;;
18947;SDS011;9607;51.600;7.558;2023-11-21T10:07:14;57.67;;;26.15;;
18947;SDS011;9607;51.600;7.558;2023-11-21T10:09:45;53.75;;;24.90;;
18947;SDS011;9607;51.600;7.558;2023-11-21T10:12:13;54.10;;;24.42;;
18947;SDS011;9607;51.600;7.558;2023-11-21T10:14:42;60.80;;;27.02;;
18947;SDS011;9607;51.600;7.558;2023-11-21T10:17:12;54.45;;;24.30;;
18947;SDS011;9607;51.600;7.558;2023-11-21T10:19:43;57.03;;;24.15;;
18947;SDS011;9607;51.600;7.558;2023-11-21T10:22:14;47.10;;;23.30;;
18947;SDS011;9607;51.600;7.558;2023-11-21T10:24:42;54.67;;;24.90;;
18947;SDS011;9607;51.600;7.558;2023-11-21T10:27:09;43.47;;;22.90;;
18947;SDS011;9607;51.600;7.558;2023-11-21T10:29:36;43.80;;;21.77;;
18947;SDS011;9607;51.600;7.558;2023-11-21T10:32:03;49.75;;;22.77;;
18947;SDS011;9607;51.600;7.558;2023-11-21T10:34:30;56.60;;;24.83;;
18947;SDS011;9607;51.600;7.558;2023-11-21T10:37:00;56.85;;;25.42;;
18947;SDS011;9607;51.600;7.558;2023-11-21T10:39:38;50.38;;;22.83;;
18947;SDS011;9607;51.600;7.558;2023-11-21T10:42:07;39.97;;;20.70;;
18947;SDS011;9607;51.600;7.558;2023-11-21T10:44:35;45.75;;;21.80;;
18947;SDS011;9607;51.600;7.558;2023-11-21T10:47:02;47.08;;;22.65;;
18947;SDS011;9607;51.600;7.558;2023-11-21T10:49:30;43.10;;;21.60;;
18947;SDS011;9607;51.600;7.558;2023-11-21T10:51:57;43.47;;;19.55;;
18947;SDS011;9607;51.600;7.558;2023-11-21T10:54:25;45.60;;;20.38;;
18947;SDS011;9607;51.600;7.558;2023-11-21T10:56:53;39.17;;;18.23;;
18947;SDS011;9607;51.600;7.558;2023-11-21T10:59:22;34.13;;;18.85;;
18947;SDS011;9607;51.600;7.558;2023-11-21T11:01:51;39.55;;;19.77;;
18947;SDS011;9607;51.600;7.558;2023-11-21T11:04:18;35.50;;;17.38;;
18947;SDS011;9607;51.600;7.558;2023-11-21T11:06:48;33.47;;;18.25;;
18947;SDS011;9607;51.600;7.558;2023-11-21T11:09:19;33.80;;;18.08;;
18947;SDS011;9607;51.600;7.558;2023-11-21T11:11:47;33.33;;;17.92;;
18947;SDS011;9607;51.600;7.558;2023-11-21T11:14:14;32.65;;;17.25;;
18947;SDS011;9607;51.600;7.558;2023-11-21T11:16:41;28.33;;;14.63;;
18947;SDS011;9607;51.600;7.558;2023-11-21T11:19:10;23.95;;;13.75;;
18947;SDS011;9607;51.600;7.558;2023-11-21T11:21:42;24.98;;;12.88;;
18947;SDS011;9607;51.600;7.558;2023-11-21T11:24:29;29.42;;;14.90;;
18947;SDS011;9607;51.600;7.558;2023-11-21T11:27:10;32.10;;;16.95;;
18947;SDS011;9607;51.600;7.558;2023-11-21T11:29:47;28.75;;;15.73;;
18947;SDS011;9607;51.600;7.558;2023-11-21T11:32:25;27.98;;;15.48;;
18947;SDS011;9607;51.600;7.558;2023-11-21T11:35:01;27.35;;;14.75;;
18947;SDS011;9607;51.600;7.558;2023-11-21T11:37:36;25.15;;;13.65;;
18947;SDS011;9607;51.600;7.558;2023-11-21T11:40:05;23.30;;;13.65;;
18947;SDS011;9607;51.600;7.558;2023-11-21T11:42:35;25.67;;;13.85;;
18947;SDS011;9607;51.600;7.558;2023-11-21T11:45:02;23.00;;;12.30;;
18947;SDS011;9607;51.600;7.558;2023-11-21T11:47:44;23.63;;;12.20;;
18947;SDS011;9607;51.600;7.558;2023-11-21T11:50:14;19.13;;;9.52;;
18947;SDS011;9607;51.600;7.558;2023-11-21T11:52:43;20.48;;;11.32;;
18947;SDS011;9607;51.600;7.558;2023-11-21T11:55:14;20.27;;;10.52;;
18947;SDS011;9607;51.600;7.558;2023-11-21T11:57:47;17.48;;;9.63;;
18947;SDS011;9607;51.600;7.558;2023-11-21T12:00:16;16.00;;;8.98;;
18947;SDS011;9607;51.600;7.558;2023-11-21T12:02:45;19.23;;;8.07;;
18947;SDS011;9607;51.600;7.558;2023-11-21T12:05:13;11.60;;;7.53;;
18947;SDS011;9607;51.600;7.558;2023-11-21T12:07:43;14.07;;;8.80;;
18947;SDS011;9607;51.600;7.558;2023-11-21T12:10:12;14.75;;;8.82;;
18947;SDS011;9607;51.600;7.558;2023-11-21T12:12:43;13.20;;;8.52;;
18947;SDS011;9607;51.600;7.558;2023-11-21T12:15:12;16.65;;;9.80;;
18947;SDS011;9607;51.600;7.558;2023-11-21T12:17:41;17.42;;;9.35;;
18947;SDS011;9607;51.600;7.558;2023-11-21T12:20:10;12.20;;;8.18;;
18947;SDS011;9607;51.600;7.558;2023-11-21T12:22:43;11.45;;;7.85;;
18947;SDS011;9607;51.600;7.558;2023-11-21T12:25:12;14.13;;;8.45;;
18947;SDS011;9607;51.600;7.558;2023-11-21T12:27:42;15.98;;;9.85;;
18947;SDS011;9607;51.600;7.558;2023-11-21T12:30:13;16.02;;;9.30;;
18947;SDS011;9607;51.600;7.558;2023-11-21T12:32:41;16.70;;;8.77;;
18947;SDS011;9607;51.600;7.558;2023-11-21T12:35:09;13.15;;;8.50;;
18947;SDS011;9607;51.600;7.558;2023-11-21T12:37:36;13.50;;;9.05;;
18947;SDS011;9607;51.600;7.558;2023-11-21T12:40:05;14.75;;;8.70;;
18947;SDS011;9607;51.600;7.558;2023-11-21T12:42:33;13.55;;;8.82;;
18947;SDS011;9607;51.600;7.558;2023-11-21T12:45:10;11.38;;;7.43;;
18947;SDS011;9607;51.600;7.558;2023-11-21T12:47:46;16.45;;;8.32;;
18947;SDS011;9607;51.600;7.558;2023-11-21T12:50:14;10.68;;;7.07;;
18947;SDS011;9607;51.600;7.558;2023-11-21T12:52:46;10.82;;;7.30;;
18947;SDS011;9607;51.600;7.558;2023-11-21T12:55:16;12.52;;;7.93;;
18947;SDS011;9607;51.600;7.558;2023-11-21T12:57:47;12.07;;;7.38;;
18947;SDS011;9607;51.600;7.558;2023-11-21T13:00:15;10.52;;;7.05;;
18947;SDS011;9607;51.600;7.558;2023-11-21T13:02:54;17.23;;;9.52;;
18947;SDS011;9607;51.600;7.558;2023-11-21T13:05:23;12.63;;;8.30;;
18947;SDS011;9607;51.600;7.558;2023-11-21T13:07:51;12.27;;;8.02;;
18947;SDS011;9607;51.600;7.558;2023-11-21T13:10:19;13.60;;;8.48;;
18947;SDS011;9607;51.600;7.558;2023-11-21T13:12:51;12.38;;;7.85;;
18947;SDS011;9607;51.600;7.558;2023-11-21T13:15:19;10.38;;;7.05;;
18947;SDS011;9607;51.600;7.558;2023-11-21T13:17:47;12.93;;;7.60;;
18947;SDS011;9607;51.600;7.558;2023-11-21T13:20:16;11.85;;;7.47;;
18947;SDS011;9607;51.600;7.558;2023-11-21T13:22:48;11.40;;;7.18;;
18947;SDS011;9607;51.600;7.558;2023-11-21T13:25:16;9.68;;;7.03;;
18947;SDS011;9607;51.600;7.558;2023-11-21T13:27:44;13.48;;;7.65;;
18947;SDS011;9607;51.600;7.558;2023-11-21T13:30:12;9.25;;;6.40;;
18947;SDS011;9607;51.600;7.558;2023-11-21T13:32:44;11.10;;;7.03;;
18947;SDS011;9607;51.600;7.558;2023-11-21T13:35:12;11.35;;;6.55;;
18947;SDS011;9607;51.600;7.558;2023-11-21T13:37:50;9.30;;;6.38;;
18947;SDS011;9607;51.600;7.558;2023-11-21T13:40:21;9.55;;;5.80;;
18947;SDS011;9607;51.600;7.558;2023-11-21T13:42:51;10.30;;;6.68;;
18947;SDS011;9607;51.600;7.558;2023-11-21T13:45:20;14.15;;;7.05;;
18947;SDS011;9607;51.600;7.558;2023-11-21T13:47:48;11.30;;;7.20;;
18947;SDS011;9607;51.600;7.558;2023-11-21T13:50:17;9.93;;;6.63;;
18947;SDS011;9607;51.600;7.558;2023-11-21T13:52:48;9.20;;;6.05;;
18947;SDS011;9607;51.600;7.558;2023-11-21T13:55:18;8.68;;;5.80;;
18947;SDS011;9607;51.600;7.558;2023-11-21T13:57:45;9.00;;;6.25;;
18947;SDS011;9607;51.600;7.558;2023-11-21T14:00:15;8.38;;;5.90;;
18947;SDS011;9607;51.600;7.558;2023-11-21T14:02:56;7.80;;;5.63;;
18947;SDS011;9607;51.600;7.558;2023-11-21T14:05:25;8.27;;;5.82;;
18947;SDS011;9607;51.600;7.558;2023-11-21T14:07:54;7.38;;;5.47;;
18947;SDS011;9607;51.600;7.558;2023-11-21T14:10:28;6.70;;;4.72;;
18947;SDS011;9607;51.600;7.558;2023-11-21T14:13:02;7.68;;;5.00;;
18947;SDS011;9607;51.600;7.558;2023-11-21T14:15:30;8.10;;;5.45;;
18947;SDS011;9607;51.600;7.558;2023-11-21T14:17:58;7.57;;;5.20;;
18947;SDS011;9607;51.600;7.558;2023-11-21T14:20:27;6.63;;;5.32;;
18947;SDS011;9607;51.600;7.558;2023-11-21T14:22:55;5.93;;;4.97;;
18947;SDS011;9607;51.600;7.558;2023-11-21T14:25:22;7.55;;;5.60;;
18947;SDS011;9607;51.600;7.558;2023-11-21T14:27:50;6.88;;;5.43;;
18947;SDS011;9607;51.600;7.558;2023-11-21T14:30:17;6.05;;;4.47;;
18947;SDS011;9607;51.600;7.558;2023-11-21T14:32:47;5.55;;;4.07;;
18947;SDS011;9607;51.600;7.558;2023-11-21T14:35:14;4.25;;;3.63;;
18947;SDS011;9607;51.600;7.558;2023-11-21T14:37:42;4.32;;;3.50;;
18947;SDS011;9607;51.600;7.558;2023-11-21T14:40:10;3.22;;;2.92;;
18947;SDS011;9607;51.600;7.558;2023-11-21T14:42:41;4.38;;;3.33;;
18947;SDS011;9607;51.600;7.558;2023-11-21T14:45:13;5.57;;;3.72;;
18947;SDS011;9607;51.600;7.558;2023-11-21T14:47:44;4.85;;;3.80;;
18947;SDS011;9607;51.600;7.558;2023-11-21T14:50:18;6.25;;;3.55;;
18947;SDS011;9607;51.600;7.558;2023-11-21T14:53:13;6.68;;;4.97;;
18947;SDS011;9607;51.600;7.558;2023-11-21T14:55:39;5.78;;;4.68;;
18947;SDS011;9607;51.600;7.558;2023-11-21T14:58:19;8.85;;;6.65;;